Time,TemperatureF,DewpointF,PressureIn,WindDirection,WindDirectionDegrees,WindSpeedMPH,WindSpeedGustMPH,Humidity,HourlyPrecipIn,Conditions,Clouds,dailyrainin,SoftwareType,DateUTC
2013-05-10 00:02:00,46.5,45.0,30.17,NE,55,0.0,0.0,93,0.00,,,0.00,weatherlink.com 1.10,2013-05-10 07:02:00,
2013-05-10 00:28:00,46.5,45.0,30.17,NE,55,0.0,0.0,93,0.00,,,0.00,weatherlink.com 1.10,2013-05-10 07:28:00,
2013-05-10 00:47:00,45.8,44.0,30.19,NE,55,0.0,0.0,93,0.00,,,0.00,weatherlink.com 1.10,2013-05-10 07:47:00,
2013-05-10 01:47:00,45.1,44.0,30.17,NE,55,0.0,0.0,94,0.00,,,0.00,weatherlink.com 1.10,2013-05-10 08:47:00,
2013-05-10 02:02:00,44.9,43.0,30.17,NE,55,0.0,0.0,94,0.00,,,0.00,weatherlink.com 1.10,2013-05-10 09:02:00,
2013-05-10 02:29:00,44.9,43.0,30.17,NE,55,0.0,0.0,94,0.00,,,0.00,weatherlink.com 1.10,2013-05-10 09:29:00,
2013-05-10 02:47:00,44.6,43.0,30.16,NE,55,0.0,0.0,94,0.00,,,0.00,weatherlink.com 1.10,2013-05-10 09:47:00,
2013-05-10 03:02:00,44.5,43.0,30.16,NE,55,0.0,0.0,94,0.00,,,0.00,weatherlink.com 1.10,2013-05-10 10:02:00,
2013-05-10 03:28:00,44.5,43.0,30.16,NE,55,0.0,0.0,94,0.00,,,0.00,weatherlink.com 1.10,2013-05-10 10:28:00,
2013-05-10 03:49:00,43.9,42.0,30.15,NE,55,0.0,0.0,94,0.00,,,0.00,weatherlink.com 1.10,2013-05-10 10:49:00,
2013-05-10 04:02:00,43.7,42.0,30.15,NE,55,0.0,0.0,94,0.00,,,0.00,weatherlink.com 1.10,2013-05-10 11:02:00,
2013-05-10 04:23:00,43.7,42.0,30.15,NE,55,0.0,0.0,94,0.00,,,0.00,weatherlink.com 1.10,2013-05-10 11:23:00,
2013-05-10 04:31:00,43.7,42.0,30.14,NE,55,0.0,0.0,94,0.00,,,0.00,weatherlink.com 1.10,2013-05-10 11:31:00,
2013-05-10 04:47:00,44.3,43.0,30.14,NE,55,0.0,0.0,94,0.00,,,0.00,weatherlink.com 1.10,2013-05-10 11:47:00,
2013-05-10 05:02:00,44.9,44.0,30.14,NE,55,0.0,0.0,95,0.00,,,0.00,weatherlink.com 1.10,2013-05-10 12:02:00,
2013-05-10 05:28:00,45.0,44.0,30.14,NE,55,0.0,0.0,95,0.00,,,0.00,weatherlink.com 1.10,2013-05-10 12:28:00,
2013-05-10 05:47:00,46.9,46.0,30.14,NE,55,0.0,0.0,95,0.00,,,0.00,weatherlink.com 1.10,2013-05-10 12:47:00,
2013-05-10 06:02:00,47.2,46.0,30.14,NE,55,0.0,0.0,95,0.00,,,0.00,weatherlink.com 1.10,2013-05-10 13:02:00,
2013-05-10 06:29:00,47.3,46.0,30.14,NE,55,0.0,0.0,95,0.00,,,0.00,weatherlink.com 1.10,2013-05-10 13:29:00,
2013-05-10 06:47:00,47.7,46.0,30.15,NE,55,0.0,0.0,95,0.00,,,0.00,weatherlink.com 1.10,2013-05-10 13:47:00,
2013-05-10 07:02:00,48.6,47.0,30.16,NE,55,0.0,1.0,95,0.00,,,0.00,weatherlink.com 1.10,2013-05-10 14:02:00,
2013-05-10 07:28:00,49.0,48.0,30.16,NE,55,0.0,1.0,95,0.00,,,0.00,weatherlink.com 1.10,2013-05-10 14:28:00,
2013-05-10 07:47:00,50.6,49.0,30.17,NE,55,0.0,1.0,95,0.00,,,0.00,weatherlink.com 1.10,2013-05-10 14:47:00,
2013-05-10 08:02:00,50.8,50.0,30.17,NE,55,0.0,3.0,95,0.00,,,0.00,weatherlink.com 1.10,2013-05-10 15:02:00,
2013-05-10 08:28:00,51.0,50.0,30.17,NE,55,0.0,1.0,95,0.00,,,0.00,weatherlink.com 1.10,2013-05-10 15:28:00,
2013-05-10 08:47:00,58.0,54.0,30.16,East,92,0.0,1.0,85,0.00,,,0.00,weatherlink.com 1.10,2013-05-10 15:47:00,
2013-05-10 09:02:00,59.3,54.0,30.16,East,88,0.0,2.0,81,0.00,,,0.00,weatherlink.com 1.10,2013-05-10 16:02:00,
2013-05-10 09:29:00,59.5,54.0,30.16,SSE,158,0.0,2.0,81,0.00,,,0.00,weatherlink.com 1.10,2013-05-10 16:29:00,
2013-05-10 09:47:00,65.4,56.0,30.17,South,175,0.0,2.0,72,0.00,,,0.00,weatherlink.com 1.10,2013-05-10 16:47:00,
2013-05-10 10:02:00,64.6,57.0,30.17,East,93,0.0,4.0,76,0.00,,,0.00,weatherlink.com 1.10,2013-05-10 17:02:00,
2013-05-10 10:29:00,64.9,56.0,30.17,East,84,0.0,4.0,72,0.00,,,0.00,weatherlink.com 1.10,2013-05-10 17:29:00,
2013-05-10 10:47:00,69.8,58.0,30.17,SW,223,0.0,5.0,67,0.00,,,0.00,weatherlink.com 1.10,2013-05-10 17:47:00,
2013-05-10 11:02:00,69.4,57.0,30.17,ENE,73,0.0,3.0,64,0.00,,,0.00,weatherlink.com 1.10,2013-05-10 18:02:00,
2013-05-10 11:29:00,69.7,58.0,30.18,NE,36,1.0,2.0,66,0.00,,,0.00,weatherlink.com 1.10,2013-05-10 18:29:00,
2013-05-10 11:47:00,71.7,57.0,30.18,ENE,70,1.0,7.0,61,0.00,,,0.00,weatherlink.com 1.10,2013-05-10 18:47:00,
2013-05-10 12:02:00,72.1,58.0,30.17,ENE,67,0.0,5.0,61,0.00,,,0.00,weatherlink.com 1.10,2013-05-10 19:02:00,
2013-05-10 12:29:00,72.2,58.0,30.18,NE,55,4.0,7.0,61,0.00,,,0.00,weatherlink.com 1.10,2013-05-10 19:29:00,
2013-05-10 12:47:00,76.4,59.0,30.16,SSE,166,0.0,7.0,55,0.00,,,0.00,weatherlink.com 1.10,2013-05-10 19:47:00,
2013-05-10 13:02:00,76.3,59.0,30.16,West,279,1.0,9.0,56,0.00,,,0.00,weatherlink.com 1.10,2013-05-10 20:02:00,
2013-05-10 13:29:00,76.2,58.0,30.16,SW,224,1.0,9.0,53,0.00,,,0.00,weatherlink.com 1.10,2013-05-10 20:29:00,
2013-05-10 13:47:00,75.5,58.0,30.16,NNE,24,0.0,10.0,55,0.00,,,0.00,weatherlink.com 1.10,2013-05-10 20:47:00,
2013-05-10 14:02:00,74.9,58.0,30.16,NNE,19,2.0,6.0,55,0.00,,,0.00,weatherlink.com 1.10,2013-05-10 21:02:00,
2013-05-10 14:28:00,75.2,58.0,30.16,NW,311,0.0,6.0,55,0.00,,,0.00,weatherlink.com 1.10,2013-05-10 21:28:00,
2013-05-10 14:46:00,77.2,60.0,30.14,WSW,244,2.0,6.0,55,0.00,,,0.00,weatherlink.com 1.10,2013-05-10 21:46:00,
2013-05-10 15:02:00,77.3,59.0,30.14,NNE,13,1.0,5.0,53,0.00,,,0.00,weatherlink.com 1.10,2013-05-10 22:02:00,
2013-05-10 15:29:00,77.0,58.0,30.14,NE,45,1.0,5.0,53,0.00,,,0.00,weatherlink.com 1.10,2013-05-10 22:29:00,
2013-05-10 15:47:00,76.5,58.0,30.13,East,88,1.0,9.0,53,0.00,,,0.00,weatherlink.com 1.10,2013-05-10 22:47:00,
2013-05-10 16:02:00,75.5,58.0,30.12,East,79,2.0,7.0,54,0.00,,,0.00,weatherlink.com 1.10,2013-05-10 23:02:00,
2013-05-10 16:29:00,75.3,57.0,30.12,NNE,15,1.0,7.0,54,0.00,,,0.00,weatherlink.com 1.10,2013-05-10 23:29:00,
2013-05-10 16:47:00,72.7,57.0,30.12,WNW,302,2.0,7.0,58,0.00,,,0.00,weatherlink.com 1.10,2013-05-10 23:47:00,
2013-05-10 17:02:00,72.7,57.0,30.11,WNW,296,0.0,3.0,58,0.00,,,0.00,weatherlink.com 1.10,2013-05-11 00:02:00,
2013-05-10 17:29:00,72.7,56.0,30.11,WNW,300,3.0,4.0,57,0.00,,,0.00,weatherlink.com 1.10,2013-05-11 00:29:00,
2013-05-10 17:47:00,69.0,57.0,30.11,ENE,69,0.0,4.0,66,0.00,,,0.00,weatherlink.com 1.10,2013-05-11 00:47:00,
2013-05-10 18:02:00,68.4,56.0,30.11,NE,54,3.0,7.0,64,0.00,,,0.00,weatherlink.com 1.10,2013-05-11 01:02:00,
2013-05-10 18:27:00,68.3,56.0,30.11,ENE,61,0.0,6.0,64,0.00,,,0.00,weatherlink.com 1.10,2013-05-11 01:27:00,
2013-05-10 18:46:00,64.7,55.0,30.10,NE,38,0.0,1.0,71,0.00,,,0.00,weatherlink.com 1.10,2013-05-11 01:46:00,
2013-05-10 19:01:00,63.8,55.0,30.10,NE,38,0.0,1.0,73,0.00,,,0.00,weatherlink.com 1.10,2013-05-11 02:01:00,
2013-05-10 19:29:00,63.6,55.0,30.10,NE,38,0.0,0.0,74,0.00,,,0.00,weatherlink.com 1.10,2013-05-11 02:29:00,
2013-05-10 19:47:00,61.7,55.0,30.11,NE,38,0.0,0.0,78,0.00,,,0.00,weatherlink.com 1.10,2013-05-11 02:47:00,
2013-05-10 20:02:00,61.0,55.0,30.11,NE,38,0.0,0.0,80,0.00,,,0.00,weatherlink.com 1.10,2013-05-11 03:02:00,
2013-05-10 20:29:00,60.9,55.0,30.11,NE,38,0.0,0.0,81,0.00,,,0.00,weatherlink.com 1.10,2013-05-11 03:29:00,
2013-05-10 20:47:00,59.0,54.0,30.12,NE,38,0.0,0.0,83,0.00,,,0.00,weatherlink.com 1.10,2013-05-11 03:47:00,
2013-05-10 21:02:00,58.1,54.0,30.12,NE,38,0.0,0.0,85,0.00,,,0.00,weatherlink.com 1.10,2013-05-11 04:02:00,
2013-05-10 21:29:00,57.0,53.0,30.12,NE,38,0.0,0.0,85,0.00,,,0.00,weatherlink.com 1.10,2013-05-11 04:29:00,
2013-05-10 21:32:00,56.9,53.0,30.13,NE,38,0.0,0.0,87,0.00,,,0.00,weatherlink.com 1.10,2013-05-11 04:32:00,
2013-05-10 21:47:00,56.5,53.0,30.13,NE,38,0.0,0.0,88,0.00,,,0.00,weatherlink.com 1.10,2013-05-11 04:47:00,
2013-05-10 22:02:00,56.2,53.0,30.13,NE,38,0.0,0.0,89,0.00,,,0.00,weatherlink.com 1.10,2013-05-11 05:02:00,
2013-05-10 22:29:00,56.1,53.0,30.13,NE,38,0.0,0.0,89,0.00,,,0.00,weatherlink.com 1.10,2013-05-11 05:29:00,
2013-05-10 22:32:00,55.3,53.0,30.15,NE,38,0.0,0.0,90,0.00,,,0.00,weatherlink.com 1.10,2013-05-11 05:32:00,
2013-05-10 22:47:00,54.9,52.0,30.14,NE,38,0.0,0.0,90,0.00,,,0.00,weatherlink.com 1.10,2013-05-11 05:47:00,
2013-05-10 23:02:00,54.6,52.0,30.14,NE,38,0.0,0.0,91,0.00,,,0.00,weatherlink.com 1.10,2013-05-11 06:02:00,
2013-05-10 23:28:00,54.5,52.0,30.14,NE,38,0.0,0.0,91,0.00,,,0.00,weatherlink.com 1.10,2013-05-11 06:28:00,
2013-05-10 23:46:00,53.8,52.0,30.15,NE,38,0.0,0.0,92,0.00,,,0.00,weatherlink.com 1.10,2013-05-11 06:46:00,